sensor_id;sensor_type;location;lat;lon;timestamp;P1;durP1;ratioP1;P2;durP2;ratioP2
39434;SDS011;66825;51.880;-0.518;2023-06-22T00:01:02;1.60;;;1.42;;
39434;SDS011;66825;51.880;-0.518;2023-06-22T00:03:28;1.20;;;1.10;;
39434;SDS011;66825;51.880;-0.518;2023-06-22T00:05:53;1.40;;;1.30;;
39434;SDS011;66825;51.880;-0.518;2023-06-22T00:08:19;1.30;;;1.20;;
39434;SDS011;66825;51.880;-0.518;2023-06-22T00:10:45;1.35;;;1.25;;
39434;SDS011;66825;51.880;-0.518;2023-06-22T00:13:12;1.40;;;1.30;;
39434;SDS011;66825;51.880;-0.518;2023-06-22T00:15:39;1.23;;;1.13;;
39434;SDS011;66825;51.880;-0.518;2023-06-22T00:18:06;1.40;;;1.30;;
39434;SDS011;66825;51.880;-0.518;2023-06-22T00:20:32;2.15;;;1.40;;
39434;SDS011;66825;51.880;-0.518;2023-06-22T00:23:01;1.30;;;1.20;;
39434;SDS011;66825;51.880;-0.518;2023-06-22T00:25:27;1.20;;;1.10;;
39434;SDS011;66825;51.880;-0.518;2023-06-22T00:27:52;1.73;;;1.30;;
39434;SDS011;66825;51.880;-0.518;2023-06-22T00:30:18;1.45;;;1.35;;
39434;SDS011;66825;51.880;-0.518;2023-06-22T00:32:44;1.50;;;1.40;;
39434;SDS011;66825;51.880;-0.518;2023-06-22T00:35:11;1.50;;;1.40;;
39434;SDS011;66825;51.880;-0.518;2023-06-22T00:37:38;1.85;;;1.27;;
39434;SDS011;66825;51.880;-0.518;2023-06-22T00:40:07;1.23;;;1.13;;
39434;SDS011;66825;51.880;-0.518;2023-06-22T00:42:43;1.40;;;1.30;;
39434;SDS011;66825;51.880;-0.518;2023-06-22T00:45:08;1.40;;;1.30;;
39434;SDS011;66825;51.880;-0.518;2023-06-22T00:47:34;1.40;;;1.30;;
39434;SDS011;66825;51.880;-0.518;2023-06-22T00:50:01;1.58;;;1.27;;
39434;SDS011;66825;51.880;-0.518;2023-06-22T00:52:28;1.55;;;1.45;;
39434;SDS011;66825;51.880;-0.518;2023-06-22T00:54:56;1.50;;;1.38;;
39434;SDS011;66825;51.880;-0.518;2023-06-22T00:57:22;1.40;;;1.30;;
39434;SDS011;66825;51.880;-0.518;2023-06-22T00:59:53;1.38;;;1.27;;
39434;SDS011;66825;51.880;-0.518;2023-06-22T01:02:19;1.35;;;1.20;;
39434;SDS011;66825;51.880;-0.518;2023-06-22T01:04:45;1.60;;;1.50;;
39434;SDS011;66825;51.880;-0.518;2023-06-22T01:09:51;1.50;;;1.40;;
39434;SDS011;66825;51.880;-0.518;2023-06-22T01:12:24;1.30;;;1.20;;
39434;SDS011;66825;51.880;-0.518;2023-06-22T01:14:55;1.40;;;1.30;;
39434;SDS011;66825;51.880;-0.518;2023-06-22T01:17:27;1.35;;;1.25;;
39434;SDS011;66825;51.880;-0.518;2023-06-22T01:19:54;1.40;;;1.30;;
39434;SDS011;66825;51.880;-0.518;2023-06-22T01:22:24;1.88;;;1.10;;
39434;SDS011;66825;51.880;-0.518;2023-06-22T01:27:40;1.48;;;1.38;;
39434;SDS011;66825;51.880;-0.518;2023-06-22T01:32:41;1.30;;;1.20;;
39434;SDS011;66825;51.880;-0.518;2023-06-22T01:35:07;1.20;;;1.10;;
39434;SDS011;66825;51.880;-0.518;2023-06-22T01:37:34;1.50;;;1.40;;
39434;SDS011;66825;51.880;-0.518;2023-06-22T01:40:02;1.40;;;1.30;;
39434;SDS011;66825;51.880;-0.518;2023-06-22T01:42:30;1.30;;;1.20;;
39434;SDS011;66825;51.880;-0.518;2023-06-22T01:44:57;1.38;;;1.25;;
39434;SDS011;66825;51.880;-0.518;2023-06-22T01:47:24;1.50;;;1.40;;
39434;SDS011;66825;51.880;-0.518;2023-06-22T01:49:50;1.25;;;1.13;;
39434;SDS011;66825;51.880;-0.518;2023-06-22T01:52:19;1.50;;;1.30;;
39434;SDS011;66825;51.880;-0.518;2023-06-22T01:54:46;1.42;;;1.33;;
39434;SDS011;66825;51.880;-0.518;2023-06-22T01:57:12;1.38;;;1.25;;
39434;SDS011;66825;51.880;-0.518;2023-06-22T02:02:12;1.42;;;1.33;;
39434;SDS011;66825;51.880;-0.518;2023-06-22T02:04:51;1.50;;;1.20;;
39434;SDS011;66825;51.880;-0.518;2023-06-22T02:07:20;1.40;;;1.30;;
39434;SDS011;66825;51.880;-0.518;2023-06-22T02:09:48;1.25;;;1.15;;
39434;SDS011;66825;51.880;-0.518;2023-06-22T02:12:18;1.27;;;1.17;;
39434;SDS011;66825;51.880;-0.518;2023-06-22T02:14:48;1.50;;;1.40;;
39434;SDS011;66825;51.880;-0.518;2023-06-22T02:17:16;1.40;;;1.20;;
39434;SDS011;66825;51.880;-0.518;2023-06-22T02:19:42;1.40;;;1.30;;
39434;SDS011;66825;51.880;-0.518;2023-06-22T02:22:08;1.23;;;1.10;;
39434;SDS011;66825;51.880;-0.518;2023-06-22T02:24:34;1.20;;;1.10;;
39434;SDS011;66825;51.880;-0.518;2023-06-22T02:27:00;1.38;;;1.27;;
39434;SDS011;66825;51.880;-0.518;2023-06-22T02:29:26;1.40;;;1.30;;
39434;SDS011;66825;51.880;-0.518;2023-06-22T02:31:53;1.35;;;1.25;;
39434;SDS011;66825;51.880;-0.518;2023-06-22T02:34:19;1.40;;;1.30;;
39434;SDS011;66825;51.880;-0.518;2023-06-22T02:36:47;1.40;;;1.30;;
39434;SDS011;66825;51.880;-0.518;2023-06-22T02:39:18;1.40;;;1.30;;
39434;SDS011;66825;51.880;-0.518;2023-06-22T02:41:51;1.27;;;1.17;;
39434;SDS011;66825;51.880;-0.518;2023-06-22T02:44:18;1.20;;;1.10;;
39434;SDS011;66825;51.880;-0.518;2023-06-22T02:46:44;1.40;;;1.30;;
39434;SDS011;66825;51.880;-0.518;2023-06-22T02:49:10;1.48;;;1.35;;
39434;SDS011;66825;51.880;-0.518;2023-06-22T02:51:37;1.30;;;1.20;;
39434;SDS011;66825;51.880;-0.518;2023-06-22T02:54:04;1.30;;;1.20;;
39434;SDS011;66825;51.880;-0.518;2023-06-22T02:56:30;1.30;;;1.20;;
39434;SDS011;66825;51.880;-0.518;2023-06-22T02:58:56;1.33;;;1.23;;
39434;SDS011;66825;51.880;-0.518;2023-06-22T03:01:29;1.40;;;1.30;;
39434;SDS011;66825;51.880;-0.518;2023-06-22T03:04:04;1.48;;;1.38;;
39434;SDS011;66825;51.880;-0.518;2023-06-22T03:06:31;1.25;;;1.15;;
39434;SDS011;66825;51.880;-0.518;2023-06-22T03:08:59;1.30;;;1.20;;
39434;SDS011;66825;51.880;-0.518;2023-06-22T03:11:26;1.52;;;1.42;;
39434;SDS011;66825;51.880;-0.518;2023-06-22T03:13:52;1.40;;;1.30;;
39434;SDS011;66825;51.880;-0.518;2023-06-22T03:16:18;1.45;;;1.35;;
39434;SDS011;66825;51.880;-0.518;2023-06-22T03:18:44;1.30;;;1.20;;
39434;SDS011;66825;51.880;-0.518;2023-06-22T03:21:10;1.48;;;1.38;;
39434;SDS011;66825;51.880;-0.518;2023-06-22T03:23:35;1.50;;;1.40;;
39434;SDS011;66825;51.880;-0.518;2023-06-22T03:26:01;2.05;;;1.48;;
39434;SDS011;66825;51.880;-0.518;2023-06-22T03:28:27;1.38;;;1.27;;
39434;SDS011;66825;51.880;-0.518;2023-06-22T03:30:53;1.40;;;1.30;;
39434;SDS011;66825;51.880;-0.518;2023-06-22T03:33:18;1.42;;;1.33;;
39434;SDS011;66825;51.880;-0.518;2023-06-22T03:35:43;1.50;;;1.40;;
39434;SDS011;66825;51.880;-0.518;2023-06-22T03:38:09;1.45;;;1.35;;
39434;SDS011;66825;51.880;-0.518;2023-06-22T03:40:34;1.50;;;1.40;;
39434;SDS011;66825;51.880;-0.518;2023-06-22T03:43:00;1.55;;;1.40;;
39434;SDS011;66825;51.880;-0.518;2023-06-22T03:45:25;1.30;;;1.20;;
39434;SDS011;66825;51.880;-0.518;2023-06-22T03:47:51;1.50;;;1.20;;
39434;SDS011;66825;51.880;-0.518;2023-06-22T03:50:16;1.40;;;1.30;;
39434;SDS011;66825;51.880;-0.518;2023-06-22T03:52:42;1.42;;;1.33;;
39434;SDS011;66825;51.880;-0.518;2023-06-22T03:55:07;1.30;;;1.20;;
39434;SDS011;66825;51.880;-0.518;2023-06-22T03:57:33;1.60;;;1.50;;
39434;SDS011;66825;51.880;-0.518;2023-06-22T03:59:59;1.60;;;1.50;;
39434;SDS011;66825;51.880;-0.518;2023-06-22T04:02:24;1.30;;;1.20;;
39434;SDS011;66825;51.880;-0.518;2023-06-22T04:04:50;1.73;;;1.45;;
39434;SDS011;66825;51.880;-0.518;2023-06-22T04:07:16;1.30;;;1.20;;
39434;SDS011;66825;51.880;-0.518;2023-06-22T04:09:43;1.58;;;1.48;;
39434;SDS011;66825;51.880;-0.518;2023-06-22T04:12:09;1.48;;;1.30;;
39434;SDS011;66825;51.880;-0.518;2023-06-22T04:14:34;1.50;;;1.40;;
39434;SDS011;66825;51.880;-0.518;2023-06-22T04:17:00;1.40;;;1.30;;
39434;SDS011;66825;51.880;-0.518;2023-06-22T04:19:26;1.50;;;1.40;;
39434;SDS011;66825;51.880;-0.518;2023-06-22T04:21:51;1.38;;;1.20;;
39434;SDS011;66825;51.880;-0.518;2023-06-22T04:24:17;1.60;;;1.50;;
39434;SDS011;66825;51.880;-0.518;2023-06-22T04:26:43;1.30;;;1.20;;
39434;SDS011;66825;51.880;-0.518;2023-06-22T04:29:10;1.38;;;1.27;;
39434;SDS011;66825;51.880;-0.518;2023-06-22T04:31:36;1.40;;;1.30;;
39434;SDS011;66825;51.880;-0.518;2023-06-22T04:34:05;1.40;;;1.30;;
39434;SDS011;66825;51.880;-0.518;2023-06-22T04:36:40;1.52;;;1.42;;
39434;SDS011;66825;51.880;-0.518;2023-06-22T04:41:40;1.30;;;1.20;;
39434;SDS011;66825;51.880;-0.518;2023-06-22T04:44:15;1.60;;;1.40;;
39434;SDS011;66825;51.880;-0.518;2023-06-22T04:46:50;1.50;;;1.38;;
39434;SDS011;66825;51.880;-0.518;2023-06-22T04:49:25;1.50;;;1.40;;
39434;SDS011;66825;51.880;-0.518;2023-06-22T04:51:57;1.40;;;1.30;;
39434;SDS011;66825;51.880;-0.518;2023-06-22T04:54:23;1.52;;;1.38;;
39434;SDS011;66825;51.880;-0.518;2023-06-22T04:56:48;1.40;;;1.30;;
39434;SDS011;66825;51.880;-0.518;2023-06-22T04:59:21;1.40;;;1.30;;
39434;SDS011;66825;51.880;-0.518;2023-06-22T05:01:56;1.27;;;1.17;;
39434;SDS011;66825;51.880;-0.518;2023-06-22T05:04:23;1.33;;;1.23;;
39434;SDS011;66825;51.880;-0.518;2023-06-22T05:06:49;1.30;;;1.20;;
39434;SDS011;66825;51.880;-0.518;2023-06-22T05:09:15;1.30;;;1.20;;
39434;SDS011;66825;51.880;-0.518;2023-06-22T05:11:42;1.30;;;1.20;;
39434;SDS011;66825;51.880;-0.518;2023-06-22T05:14:08;1.50;;;1.40;;
39434;SDS011;66825;51.880;-0.518;2023-06-22T05:16:33;1.35;;;1.25;;
39434;SDS011;66825;51.880;-0.518;2023-06-22T05:18:59;1.40;;;1.30;;
39434;SDS011;66825;51.880;-0.518;2023-06-22T05:21:25;1.30;;;1.20;;
39434;SDS011;66825;51.880;-0.518;2023-06-22T05:23:52;1.48;;;1.38;;
39434;SDS011;66825;51.880;-0.518;2023-06-22T05:26:19;1.40;;;1.30;;
39434;SDS011;66825;51.880;-0.518;2023-06-22T05:28:46;1.40;;;1.30;;
39434;SDS011;66825;51.880;-0.518;2023-06-22T05:31:13;1.40;;;1.30;;
39434;SDS011;66825;51.880;-0.518;2023-06-22T05:33:41;1.30;;;1.20;;
39434;SDS011;66825;51.880;-0.518;2023-06-22T05:36:08;1.40;;;1.30;;
39434;SDS011;66825;51.880;-0.518;2023-06-22T05:38:35;1.40;;;1.30;;
39434;SDS011;66825;51.880;-0.518;2023-06-22T05:41:01;1.38;;;1.27;;
39434;SDS011;66825;51.880;-0.518;2023-06-22T05:43:27;1.40;;;1.30;;
39434;SDS011;66825;51.880;-0.518;2023-06-22T05:45:52;1.50;;;1.40;;
39434;SDS011;66825;51.880;-0.518;2023-06-22T05:48:18;1.50;;;1.40;;
39434;SDS011;66825;51.880;-0.518;2023-06-22T05:50:43;1.60;;;1.50;;
39434;SDS011;66825;51.880;-0.518;2023-06-22T05:53:09;1.40;;;1.30;;
39434;SDS011;66825;51.880;-0.518;2023-06-22T05:55:34;1.30;;;1.20;;
39434;SDS011;66825;51.880;-0.518;2023-06-22T05:58:00;1.20;;;1.10;;
39434;SDS011;66825;51.880;-0.518;2023-06-22T06:00:26;1.40;;;1.20;;
39434;SDS011;66825;51.880;-0.518;2023-06-22T06:02:53;1.40;;;1.30;;
39434;SDS011;66825;51.880;-0.518;2023-06-22T06:05:18;1.50;;;1.40;;
39434;SDS011;66825;51.880;-0.518;2023-06-22T06:07:44;1.50;;;1.40;;
39434;SDS011;66825;51.880;-0.518;2023-06-22T06:10:11;1.50;;;1.40;;
39434;SDS011;66825;51.880;-0.518;2023-06-22T06:12:37;1.77;;;1.50;;
39434;SDS011;66825;51.880;-0.518;2023-06-22T06:15:03;1.50;;;1.40;;
39434;SDS011;66825;51.880;-0.518;2023-06-22T06:17:29;1.52;;;1.42;;
39434;SDS011;66825;51.880;-0.518;2023-06-22T06:19:55;1.40;;;1.30;;
39434;SDS011;66825;51.880;-0.518;2023-06-22T06:22:20;1.38;;;1.27;;
39434;SDS011;66825;51.880;-0.518;2023-06-22T06:24:47;1.50;;;1.40;;
39434;SDS011;66825;51.880;-0.518;2023-06-22T06:27:13;1.33;;;1.23;;
39434;SDS011;66825;51.880;-0.518;2023-06-22T06:29:39;1.50;;;1.40;;
39434;SDS011;66825;51.880;-0.518;2023-06-22T06:32:05;1.30;;;1.20;;
39434;SDS011;66825;51.880;-0.518;2023-06-22T06:34:30;1.38;;;1.20;;
39434;SDS011;66825;51.880;-0.518;2023-06-22T06:36:56;1.50;;;1.40;;
39434;SDS011;66825;51.880;-0.518;2023-06-22T06:39:21;1.45;;;1.30;;
39434;SDS011;66825;51.880;-0.518;2023-06-22T06:41:47;1.40;;;1.30;;
39434;SDS011;66825;51.880;-0.518;2023-06-22T06:44:12;1.58;;;1.27;;
39434;SDS011;66825;51.880;-0.518;2023-06-22T06:46:38;1.30;;;1.20;;
39434;SDS011;66825;51.880;-0.518;2023-06-22T06:49:03;1.52;;;1.40;;
39434;SDS011;66825;51.880;-0.518;2023-06-22T06:51:29;1.40;;;1.30;;
39434;SDS011;66825;51.880;-0.518;2023-06-22T06:53:54;1.50;;;1.40;;
39434;SDS011;66825;51.880;-0.518;2023-06-22T06:56:20;1.27;;;1.17;;
39434;SDS011;66825;51.880;-0.518;2023-06-22T06:58:45;1.52;;;1.42;;
39434;SDS011;66825;51.880;-0.518;2023-06-22T07:01:11;1.33;;;1.23;;
39434;SDS011;66825;51.880;-0.518;2023-06-22T07:03:37;2.03;;;1.40;;
39434;SDS011;66825;51.880;-0.518;2023-06-22T07:06:03;1.40;;;1.30;;
39434;SDS011;66825;51.880;-0.518;2023-06-22T07:08:29;1.33;;;1.23;;
39434;SDS011;66825;51.880;-0.518;2023-06-22T07:10:54;1.50;;;1.40;;
39434;SDS011;66825;51.880;-0.518;2023-06-22T07:13:20;1.30;;;1.20;;
39434;SDS011;66825;51.880;-0.518;2023-06-22T07:15:46;2.30;;;2.00;;
39434;SDS011;66825;51.880;-0.518;2023-06-22T07:18:11;3.13;;;1.88;;
39434;SDS011;66825;51.880;-0.518;2023-06-22T07:20:37;2.13;;;1.85;;
39434;SDS011;66825;51.880;-0.518;2023-06-22T07:23:04;3.70;;;2.80;;
39434;SDS011;66825;51.880;-0.518;2023-06-22T07:25:30;3.70;;;3.15;;
39434;SDS011;66825;51.880;-0.518;2023-06-22T07:27:59;4.03;;;3.40;;
39434;SDS011;66825;51.880;-0.518;2023-06-22T07:30:27;3.45;;;3.03;;
39434;SDS011;66825;51.880;-0.518;2023-06-22T07:32:53;4.93;;;3.55;;
39434;SDS011;66825;51.880;-0.518;2023-06-22T07:35:19;5.82;;;3.55;;
39434;SDS011;66825;51.880;-0.518;2023-06-22T07:37:44;4.35;;;3.47;;
39434;SDS011;66825;51.880;-0.518;2023-06-22T07:40:10;4.65;;;3.50;;
39434;SDS011;66825;51.880;-0.518;2023-06-22T07:42:36;4.28;;;3.40;;
39434;SDS011;66825;51.880;-0.518;2023-06-22T07:45:04;4.50;;;3.65;;
39434;SDS011;66825;51.880;-0.518;2023-06-22T07:47:33;3.83;;;3.20;;
39434;SDS011;66825;51.880;-0.518;2023-06-22T07:50:00;3.88;;;3.20;;
39434;SDS011;66825;51.880;-0.518;2023-06-22T07:52:27;4.50;;;3.20;;
39434;SDS011;66825;51.880;-0.518;2023-06-22T07:54:53;3.67;;;3.00;;
39434;SDS011;66825;51.880;-0.518;2023-06-22T07:57:19;4.45;;;3.05;;
39434;SDS011;66825;51.880;-0.518;2023-06-22T07:59:45;4.15;;;3.10;;
39434;SDS011;66825;51.880;-0.518;2023-06-22T08:02:11;5.57;;;3.25;;
39434;SDS011;66825;51.880;-0.518;2023-06-22T08:04:36;4.00;;;2.95;;
39434;SDS011;66825;51.880;-0.518;2023-06-22T08:07:02;5.32;;;3.15;;
39434;SDS011;66825;51.880;-0.518;2023-06-22T08:09:29;6.85;;;3.63;;
39434;SDS011;66825;51.880;-0.518;2023-06-22T08:11:56;5.68;;;3.53;;
39434;SDS011;66825;51.880;-0.518;2023-06-22T08:14:22;4.25;;;3.13;;
39434;SDS011;66825;51.880;-0.518;2023-06-22T08:16:55;3.63;;;3.08;;
39434;SDS011;66825;51.880;-0.518;2023-06-22T08:19:20;4.75;;;3.25;;
39434;SDS011;66825;51.880;-0.518;2023-06-22T08:21:46;5.07;;;3.55;;
39434;SDS011;66825;51.880;-0.518;2023-06-22T08:24:11;5.85;;;3.28;;
39434;SDS011;66825;51.880;-0.518;2023-06-22T08:26:37;3.90;;;3.25;;
39434;SDS011;66825;51.880;-0.518;2023-06-22T08:29:03;7.88;;;3.72;;
39434;SDS011;66825;51.880;-0.518;2023-06-22T08:31:29;7.25;;;3.40;;
39434;SDS011;66825;51.880;-0.518;2023-06-22T08:33:56;4.82;;;2.70;;
39434;SDS011;66825;51.880;-0.518;2023-06-22T08:36:22;4.85;;;3.10;;
39434;SDS011;66825;51.880;-0.518;2023-06-22T08:38:47;16.50;;;4.35;;
39434;SDS011;66825;51.880;-0.518;2023-06-22T08:41:19;9.30;;;3.47;;
39434;SDS011;66825;51.880;-0.518;2023-06-22T08:43:44;7.00;;;3.50;;
39434;SDS011;66825;51.880;-0.518;2023-06-22T08:46:12;7.07;;;3.35;;
39434;SDS011;66825;51.880;-0.518;2023-06-22T08:48:38;8.57;;;3.40;;
39434;SDS011;66825;51.880;-0.518;2023-06-22T08:51:04;6.13;;;3.28;;
39434;SDS011;66825;51.880;-0.518;2023-06-22T08:53:29;4.30;;;3.08;;
39434;SDS011;66825;51.880;-0.518;2023-06-22T08:55:55;4.70;;;2.90;;
39434;SDS011;66825;51.880;-0.518;2023-06-22T08:58:20;7.22;;;3.20;;
39434;SDS011;66825;51.880;-0.518;2023-06-22T09:00:46;4.50;;;3.17;;
39434;SDS011;66825;51.880;-0.518;2023-06-22T09:03:12;4.63;;;2.55;;
39434;SDS011;66825;51.880;-0.518;2023-06-22T09:05:38;5.93;;;3.03;;
39434;SDS011;66825;51.880;-0.518;2023-06-22T09:08:04;3.92;;;2.95;;
39434;SDS011;66825;51.880;-0.518;2023-06-22T09:10:29;5.70;;;2.78;;
39434;SDS011;66825;51.880;-0.518;2023-06-22T09:12:55;5.75;;;2.85;;
39434;SDS011;66825;51.880;-0.518;2023-06-22T09:15:20;4.53;;;3.00;;
39434;SDS011;66825;51.880;-0.518;2023-06-22T09:17:46;4.95;;;3.00;;
39434;SDS011;66825;51.880;-0.518;2023-06-22T09:20:11;3.47;;;2.65;;
39434;SDS011;66825;51.880;-0.518;2023-06-22T09:22:37;4.68;;;3.15;;
39434;SDS011;66825;51.880;-0.518;2023-06-22T09:25:03;3.60;;;2.97;;
39434;SDS011;66825;51.880;-0.518;2023-06-22T09:27:29;3.63;;;2.95;;
39434;SDS011;66825;51.880;-0.518;2023-06-22T09:29:55;3.75;;;2.90;;
39434;SDS011;66825;51.880;-0.518;2023-06-22T09:32:23;3.92;;;2.78;;
39434;SDS011;66825;51.880;-0.518;2023-06-22T09:34:49;3.92;;;2.88;;
39434;SDS011;66825;51.880;-0.518;2023-06-22T09:37:14;4.35;;;3.00;;
39434;SDS011;66825;51.880;-0.518;2023-06-22T09:39:40;5.15;;;2.90;;
39434;SDS011;66825;51.880;-0.518;2023-06-22T09:42:05;3.90;;;3.00;;
39434;SDS011;66825;51.880;-0.518;2023-06-22T09:44:31;5.60;;;2.90;;
39434;SDS011;66825;51.880;-0.518;2023-06-22T09:46:56;5.85;;;3.50;;
39434;SDS011;66825;51.880;-0.518;2023-06-22T09:49:22;4.82;;;3.50;;
39434;SDS011;66825;51.880;-0.518;2023-06-22T09:51:47;4.20;;;3.10;;
39434;SDS011;66825;51.880;-0.518;2023-06-22T09:54:14;5.72;;;3.28;;
39434;SDS011;66825;51.880;-0.518;2023-06-22T09:56:40;3.70;;;3.15;;
39434;SDS011;66825;51.880;-0.518;2023-06-22T09:59:05;4.32;;;3.10;;
39434;SDS011;66825;51.880;-0.518;2023-06-22T10:01:31;4.35;;;3.92;;
39434;SDS011;66825;51.880;-0.518;2023-06-22T10:03:56;9.70;;;8.13;;
39434;SDS011;66825;51.880;-0.518;2023-06-22T10:06:22;9.75;;;6.90;;
39434;SDS011;66825;51.880;-0.518;2023-06-22T10:08:50;7.93;;;5.10;;
39434;SDS011;66825;51.880;-0.518;2023-06-22T10:11:16;6.00;;;4.72;;
39434;SDS011;66825;51.880;-0.518;2023-06-22T10:13:42;7.00;;;5.50;;
39434;SDS011;66825;51.880;-0.518;2023-06-22T10:16:07;6.20;;;4.57;;
39434;SDS011;66825;51.880;-0.518;2023-06-22T10:18:33;6.25;;;4.80;;
39434;SDS011;66825;51.880;-0.518;2023-06-22T10:20:58;8.73;;;5.00;;
39434;SDS011;66825;51.880;-0.518;2023-06-22T10:23:24;8.90;;;4.53;;
39434;SDS011;66825;51.880;-0.518;2023-06-22T10:25:49;7.60;;;4.85;;
39434;SDS011;66825;51.880;-0.518;2023-06-22T10:28:15;4.60;;;3.78;;
39434;SDS011;66825;51.880;-0.518;2023-06-22T10:30:41;7.53;;;4.20;;
39434;SDS011;66825;51.880;-0.518;2023-06-22T10:33:10;6.00;;;4.25;;
39434;SDS011;66825;51.880;-0.518;2023-06-22T10:35:37;10.52;;;4.70;;
39434;SDS011;66825;51.880;-0.518;2023-06-22T10:38:03;7.85;;;4.20;;
39434;SDS011;66825;51.880;-0.518;2023-06-22T10:40:29;4.28;;;3.50;;
39434;SDS011;66825;51.880;-0.518;2023-06-22T10:42:54;4.65;;;3.63;;
39434;SDS011;66825;51.880;-0.518;2023-06-22T10:45:20;5.95;;;3.60;;
39434;SDS011;66825;51.880;-0.518;2023-06-22T10:47:46;12.18;;;3.92;;
39434;SDS011;66825;51.880;-0.518;2023-06-22T10:50:11;7.75;;;3.50;;
39434;SDS011;66825;51.880;-0.518;2023-06-22T10:52:37;8.30;;;3.88;;
39434;SDS011;66825;51.880;-0.518;2023-06-22T10:55:03;5.05;;;3.55;;
39434;SDS011;66825;51.880;-0.518;2023-06-22T10:57:29;5.63;;;3.60;;
39434;SDS011;66825;51.880;-0.518;2023-06-22T10:59:54;4.78;;;3.65;;
39434;SDS011;66825;51.880;-0.518;2023-06-22T11:02:20;3.75;;;3.20;;
39434;SDS011;66825;51.880;-0.518;2023-06-22T11:04:46;4.70;;;3.80;;
39434;SDS011;66825;51.880;-0.518;2023-06-22T11:07:12;5.40;;;3.65;;
39434;SDS011;66825;51.880;-0.518;2023-06-22T11:09:38;5.30;;;3.67;;
39434;SDS011;66825;51.880;-0.518;2023-06-22T11:12:04;4.05;;;3.10;;
39434;SDS011;66825;51.880;-0.518;2023-06-22T11:14:31;4.50;;;3.30;;
39434;SDS011;66825;51.880;-0.518;2023-06-22T11:16:56;5.15;;;3.42;;
39434;SDS011;66825;51.880;-0.518;2023-06-22T11:19:22;6.95;;;3.60;;
39434;SDS011;66825;51.880;-0.518;2023-06-22T11:21:47;8.60;;;4.00;;
39434;SDS011;66825;51.880;-0.518;2023-06-22T11:24:13;9.30;;;4.30;;
39434;SDS011;66825;51.880;-0.518;2023-06-22T11:26:38;8.60;;;3.92;;
39434;SDS011;66825;51.880;-0.518;2023-06-22T11:29:04;7.68;;;3.58;;
39434;SDS011;66825;51.880;-0.518;2023-06-22T11:31:33;4.78;;;3.40;;
39434;SDS011;66825;51.880;-0.518;2023-06-22T11:33:59;4.43;;;3.20;;
39434;SDS011;66825;51.880;-0.518;2023-06-22T11:36:26;5.28;;;3.28;;
39434;SDS011;66825;51.880;-0.518;2023-06-22T11:38:52;4.45;;;3.38;;
39434;SDS011;66825;51.880;-0.518;2023-06-22T11:41:18;4.68;;;2.85;;
39434;SDS011;66825;51.880;-0.518;2023-06-22T11:43:44;5.68;;;2.85;;
39434;SDS011;66825;51.880;-0.518;2023-06-22T11:46:10;3.78;;;2.85;;
39434;SDS011;66825;51.880;-0.518;2023-06-22T11:48:35;4.68;;;2.90;;
39434;SDS011;66825;51.880;-0.518;2023-06-22T11:51:01;4.65;;;3.15;;
39434;SDS011;66825;51.880;-0.518;2023-06-22T11:53:28;8.55;;;3.45;;
39434;SDS011;66825;51.880;-0.518;2023-06-22T11:55:53;8.25;;;3.28;;
39434;SDS011;66825;51.880;-0.518;2023-06-22T11:58:20;6.32;;;3.30;;
39434;SDS011;66825;51.880;-0.518;2023-06-22T12:00:45;3.88;;;3.13;;
39434;SDS011;66825;51.880;-0.518;2023-06-22T12:03:11;5.80;;;3.17;;
39434;SDS011;66825;51.880;-0.518;2023-06-22T12:05:37;4.22;;;3.22;;
39434;SDS011;66825;51.880;-0.518;2023-06-22T12:08:03;3.60;;;2.92;;
39434;SDS011;66825;51.880;-0.518;2023-06-22T12:10:28;3.20;;;2.83;;
39434;SDS011;66825;51.880;-0.518;2023-06-22T12:12:54;3.75;;;2.85;;
39434;SDS011;66825;51.880;-0.518;2023-06-22T12:15:20;3.83;;;2.90;;
39434;SDS011;66825;51.880;-0.518;2023-06-22T12:17:45;4.65;;;2.80;;
39434;SDS011;66825;51.880;-0.518;2023-06-22T12:20:13;4.03;;;2.75;;
39434;SDS011;66825;51.880;-0.518;2023-06-22T12:22:38;7.68;;;2.97;;
39434;SDS011;66825;51.880;-0.518;2023-06-22T12:25:04;4.93;;;3.05;;
39434;SDS011;66825;51.880;-0.518;2023-06-22T12:27:30;6.00;;;2.78;;
39434;SDS011;66825;51.880;-0.518;2023-06-22T12:29:56;3.67;;;2.78;;
39434;SDS011;66825;51.880;-0.518;2023-06-22T12:32:21;4.10;;;2.90;;
39434;SDS011;66825;51.880;-0.518;2023-06-22T12:34:47;5.30;;;3.10;;
39434;SDS011;66825;51.880;-0.518;2023-06-22T12:37:12;5.15;;;3.05;;
39434;SDS011;66825;51.880;-0.518;2023-06-22T12:39:40;9.07;;;3.88;;
39434;SDS011;66825;51.880;-0.518;2023-06-22T12:42:06;4.78;;;3.08;;
39434;SDS011;66825;51.880;-0.518;2023-06-22T12:44:34;6.60;;;2.90;;
39434;SDS011;66825;51.880;-0.518;2023-06-22T12:47:00;5.18;;;3.17;;
39434;SDS011;66825;51.880;-0.518;2023-06-22T12:49:25;5.95;;;3.10;;
39434;SDS011;66825;51.880;-0.518;2023-06-22T12:51:51;5.95;;;3.00;;
39434;SDS011;66825;51.880;-0.518;2023-06-22T12:54:16;4.95;;;2.70;;
39434;SDS011;66825;51.880;-0.518;2023-06-22T12:56:41;3.35;;;2.58;;
39434;SDS011;66825;51.880;-0.518;2023-06-22T12:59:09;5.10;;;2.75;;
39434;SDS011;66825;51.880;-0.518;2023-06-22T13:01:34;5.38;;;2.90;;
39434;SDS011;66825;51.880;-0.518;2023-06-22T13:03:59;3.40;;;2.58;;
39434;SDS011;66825;51.880;-0.518;2023-06-22T13:06:25;4.32;;;2.72;;
39434;SDS011;66825;51.880;-0.518;2023-06-22T13:08:50;3.42;;;2.83;;
39434;SDS011;66825;51.880;-0.518;2023-06-22T13:11:16;2.97;;;2.67;;
39434;SDS011;66825;51.880;-0.518;2023-06-22T13:13:42;2.92;;;2.55;;
39434;SDS011;66825;51.880;-0.518;2023-06-22T13:16:08;4.65;;;2.78;;
39434;SDS011;66825;51.880;-0.518;2023-06-22T13:18:34;4.93;;;2.60;;
39434;SDS011;66825;51.880;-0.518;2023-06-22T13:21:01;5.50;;;2.72;;
39434;SDS011;66825;51.880;-0.518;2023-06-22T13:23:27;5.30;;;2.78;;
39434;SDS011;66825;51.880;-0.518;2023-06-22T13:25:52;4.30;;;2.80;;
39434;SDS011;66825;51.880;-0.518;2023-06-22T13:28:18;4.43;;;2.78;;
39434;SDS011;66825;51.880;-0.518;2023-06-22T13:30:44;4.32;;;2.83;;
39434;SDS011;66825;51.880;-0.518;2023-06-22T13:33:12;4.50;;;2.90;;
39434;SDS011;66825;51.880;-0.518;2023-06-22T13:35:38;4.00;;;2.80;;
39434;SDS011;66825;51.880;-0.518;2023-06-22T13:38:04;4.72;;;3.05;;
39434;SDS011;66825;51.880;-0.518;2023-06-22T13:40:30;5.05;;;2.72;;
39434;SDS011;66825;51.880;-0.518;2023-06-22T13:42:56;4.40;;;2.92;;
39434;SDS011;66825;51.880;-0.518;2023-06-22T13:45:21;8.45;;;4.05;;
39434;SDS011;66825;51.880;-0.518;2023-06-22T13:47:47;6.93;;;3.55;;
39434;SDS011;66825;51.880;-0.518;2023-06-22T13:50:13;7.13;;;3.22;;
39434;SDS011;66825;51.880;-0.518;2023-06-22T13:52:39;5.88;;;3.35;;
39434;SDS011;66825;51.880;-0.518;2023-06-22T13:55:05;7.95;;;3.50;;
39434;SDS011;66825;51.880;-0.518;2023-06-22T13:57:35;9.70;;;3.40;;
39434;SDS011;66825;51.880;-0.518;2023-06-22T14:00:03;4.72;;;2.95;;
39434;SDS011;66825;51.880;-0.518;2023-06-22T14:02:30;5.50;;;3.25;;
39434;SDS011;66825;51.880;-0.518;2023-06-22T14:04:56;4.20;;;2.70;;
39434;SDS011;66825;51.880;-0.518;2023-06-22T14:07:21;4.85;;;2.78;;
39434;SDS011;66825;51.880;-0.518;2023-06-22T14:09:47;4.57;;;2.72;;
39434;SDS011;66825;51.880;-0.518;2023-06-22T14:12:12;6.95;;;3.20;;
39434;SDS011;66825;51.880;-0.518;2023-06-22T14:14:38;4.57;;;2.50;;
39434;SDS011;66825;51.880;-0.518;2023-06-22T14:17:03;5.00;;;3.00;;
39434;SDS011;66825;51.880;-0.518;2023-06-22T14:19:29;4.22;;;2.85;;
39434;SDS011;66825;51.880;-0.518;2023-06-22T14:21:55;3.45;;;2.75;;
39434;SDS011;66825;51.880;-0.518;2023-06-22T14:24:22;4.35;;;2.85;;
39434;SDS011;66825;51.880;-0.518;2023-06-22T14:26:48;4.05;;;3.00;;
39434;SDS011;66825;51.880;-0.518;2023-06-22T14:29:14;3.78;;;2.95;;
39434;SDS011;66825;51.880;-0.518;2023-06-22T14:31:40;3.30;;;2.80;;
39434;SDS011;66825;51.880;-0.518;2023-06-22T14:34:05;4.93;;;3.20;;
39434;SDS011;66825;51.880;-0.518;2023-06-22T14:36:31;3.53;;;2.80;;
39434;SDS011;66825;51.880;-0.518;2023-06-22T14:38:57;2.97;;;2.63;;
39434;SDS011;66825;51.880;-0.518;2023-06-22T14:41:23;4.07;;;2.90;;